Terminal Aerodrome Forecast
Issued by NWS Corpus Christi, TX

Home | Current Version | Previous Version | Text Only | Print | Product List | Glossary On
Versions: 1 2 3 4 5 6 7 8 9 10 11 12
000
FTUS44 KCRP 222330
TAFCRP
TAF
KCRP 222330Z 2300/2324 14015G22KT P6SM FEW035 BKN250
     FM230300 16011KT P6SM FEW020 BKN250
     FM231500 17015G22KT P6SM SCT035 BKN250
     FM232000 15020G28KT P6SM FEW040 SCT250=

USA.gov is the U.S. government's official web portal to all federal, state and local government web resources and services.